createdAt,value
2019-05-22T00:01:01.443Z,14.25
2019-05-22T00:03:31.817Z,15.35
2019-05-22T00:06:02.308Z,15.18
2019-05-22T00:08:31.900Z,15.85
2019-05-22T00:11:02.246Z,16.10
2019-05-22T00:13:31.154Z,16.45
2019-05-22T00:16:02.064Z,16.10
2019-05-22T00:18:31.532Z,16.20
2019-05-22T00:21:00.554Z,15.68
2019-05-22T00:23:31.319Z,15.58
2019-05-22T00:26:00.854Z,15.03
2019-05-22T00:28:30.956Z,15.08
2019-05-22T00:31:00.188Z,15.48
2019-05-22T00:33:29.905Z,14.43
2019-05-22T00:36:00.779Z,15.18
2019-05-22T00:38:31.810Z,14.45
2019-05-22T00:41:05.005Z,14.25
2019-05-22T00:43:41.785Z,14.98
2019-05-22T00:46:12.794Z,14.05
2019-05-22T00:48:43.335Z,14.58
2019-05-22T00:51:24.034Z,14.43
2019-05-22T00:54:00.556Z,16.30
2019-05-22T00:56:34.479Z,16.30
2019-05-22T00:59:21.382Z,16.40
2019-05-22T01:02:09.568Z,17.40
2019-05-22T01:04:42.198Z,16.10
2019-05-22T01:07:18.213Z,15.90
2019-05-22T01:09:52.916Z,14.18
2019-05-22T01:12:29.267Z,14.87
2019-05-22T01:15:01.116Z,15.43
2019-05-22T01:17:33.234Z,16.27
2019-05-22T01:20:03.319Z,16.80
2019-05-22T01:22:33.980Z,15.80
2019-05-22T01:25:04.654Z,16.05
2019-05-22T01:27:35.327Z,15.83
2019-05-22T01:30:07.518Z,16.77
2019-05-22T01:32:44.585Z,20.95
2019-05-22T01:35:14.138Z,16.32
2019-05-22T01:37:44.478Z,16.37
2019-05-22T01:40:32.714Z,18.60
2019-05-22T01:43:02.965Z,15.03
2019-05-22T01:45:33.671Z,14.93
2019-05-22T01:48:06.442Z,15.45
2019-05-22T01:50:41.300Z,16.02
2019-05-22T01:53:11.685Z,16.37
2019-05-22T01:55:41.613Z,15.78
2019-05-22T01:58:12.518Z,14.90
2019-05-22T02:00:42.235Z,15.25
2019-05-22T02:03:11.738Z,14.55
2019-05-22T02:05:42.571Z,14.10
2019-05-22T02:08:11.645Z,14.55
2019-05-22T02:10:42.602Z,14.93
2019-05-22T02:13:14.780Z,15.20
2019-05-22T02:15:46.297Z,14.93
2019-05-22T02:18:17.850Z,15.63
2019-05-22T02:20:46.882Z,15.10
2019-05-22T02:23:17.087Z,15.85
2019-05-22T02:25:45.823Z,15.65
2019-05-22T02:28:14.929Z,16.62
2019-05-22T02:30:46.325Z,16.85
2019-05-22T02:33:18.145Z,15.78
2019-05-22T02:35:47.567Z,15.78
2019-05-22T02:38:17.006Z,15.80
2019-05-22T02:40:49.662Z,12.68
2019-05-22T02:43:19.437Z,13.53
2019-05-22T02:45:49.782Z,13.28
2019-05-22T02:48:18.706Z,12.63
2019-05-22T02:50:48.471Z,12.03
2019-05-22T02:53:17.687Z,12.07
2019-05-22T02:55:47.494Z,12.98
2019-05-22T02:58:16.943Z,11.10
2019-05-22T03:01:01.551Z,11.97
2019-05-22T03:03:32.098Z,11.33
2019-05-22T03:06:02.347Z,10.05
2019-05-22T03:08:37.190Z,9.83
2019-05-22T03:11:07.435Z,9.10
2019-05-22T03:13:55.319Z,8.98
2019-05-22T03:16:26.482Z,8.93
2019-05-22T03:19:08.481Z,8.65
2019-05-22T03:21:26.166Z,8.20
2019-05-22T03:23:55.143Z,8.10
2019-05-22T03:26:39.363Z,8.15
2019-05-22T03:29:09.231Z,8.00
2019-05-22T03:31:38.467Z,7.78
2019-05-22T03:34:08.231Z,7.30
2019-05-22T03:36:37.594Z,7.20
2019-05-22T03:39:08.116Z,6.90
2019-05-22T03:41:37.788Z,7.50
2019-05-22T03:44:07.163Z,6.97
2019-05-22T03:46:40.710Z,7.53
2019-05-22T03:49:27.937Z,6.95
2019-05-22T03:51:42.543Z,7.22
2019-05-22T03:54:11.689Z,7.25
2019-05-22T03:56:42.167Z,6.90
2019-05-22T03:59:11.352Z,7.28
2019-05-22T04:01:40.325Z,8.30
2019-05-22T04:04:09.798Z,7.67
2019-05-22T04:06:40.313Z,7.83
2019-05-22T04:09:20.420Z,6.92
2019-05-22T04:11:50.539Z,7.60
2019-05-22T04:14:21.382Z,7.42
2019-05-22T04:16:51.920Z,7.17
2019-05-22T04:19:21.475Z,7.42
2019-05-22T04:21:50.507Z,7.70
2019-05-22T04:24:19.648Z,7.42
2019-05-22T04:26:49.129Z,8.10
2019-05-22T04:29:18.593Z,7.83
2019-05-22T04:31:53.339Z,8.15
2019-05-22T04:34:22.657Z,7.95
2019-05-22T04:36:51.621Z,7.22
2019-05-22T04:39:22.221Z,7.35
2019-05-22T04:41:51.496Z,8.40
2019-05-22T04:44:20.906Z,8.83
2019-05-22T04:46:50.401Z,8.08
2019-05-22T04:49:19.534Z,8.80
2019-05-22T04:51:48.174Z,9.03
2019-05-22T04:54:16.879Z,8.70
2019-05-22T04:56:45.611Z,8.85
2019-05-22T04:59:15.033Z,9.50
2019-05-22T05:01:43.689Z,9.80
2019-05-22T05:04:12.544Z,7.85
2019-05-22T05:06:41.872Z,7.75
2019-05-22T05:09:10.769Z,8.85
2019-05-22T05:11:39.746Z,7.83
2019-05-22T05:14:08.845Z,7.40
2019-05-22T05:16:37.832Z,8.35
2019-05-22T05:19:06.861Z,8.23
2019-05-22T05:21:37.066Z,7.97
2019-05-22T05:24:06.200Z,7.22
2019-05-22T05:26:36.178Z,8.00
2019-05-22T05:29:07.205Z,8.63
2019-05-22T05:31:36.166Z,8.13
2019-05-22T05:34:16.889Z,7.72
2019-05-22T05:36:46.614Z,8.00
2019-05-22T05:39:37.953Z,8.70
2019-05-22T05:42:06.696Z,9.73
2019-05-22T05:44:36.264Z,9.23
2019-05-22T05:47:06.891Z,7.83
2019-05-22T05:49:35.833Z,8.58
2019-05-22T05:52:06.355Z,9.65
2019-05-22T05:54:35.619Z,9.15
2019-05-22T05:57:36.515Z,9.80
2019-05-22T06:00:09.177Z,9.60
2019-05-22T06:02:38.076Z,8.68
2019-05-22T06:05:07.557Z,9.88
2019-05-22T06:07:36.268Z,9.05
2019-05-22T06:10:28.318Z,9.20
2019-05-22T06:12:57.693Z,8.58
2019-05-22T06:15:47.435Z,9.10
2019-05-22T06:18:29.951Z,9.40
2019-05-22T06:21:03.765Z,8.15
2019-05-22T06:23:39.611Z,9.20
2019-05-22T06:26:09.973Z,8.70
2019-05-22T06:28:40.509Z,9.05
2019-05-22T06:31:23.786Z,8.65
2019-05-22T06:33:52.422Z,8.60
2019-05-22T06:36:21.335Z,8.50
2019-05-22T06:38:53.607Z,8.93
2019-05-22T06:41:24.437Z,8.43
2019-05-22T06:44:27.434Z,8.35
2019-05-22T06:46:57.059Z,9.45
2019-05-22T06:49:34.681Z,11.18
2019-05-22T06:52:05.629Z,9.85
2019-05-22T06:54:34.543Z,9.73
2019-05-22T06:57:05.440Z,11.25
2019-05-22T06:59:34.385Z,12.00
2019-05-22T07:02:04.697Z,12.23
2019-05-22T07:04:34.129Z,13.00
2019-05-22T07:07:04.789Z,11.90
2019-05-22T07:09:33.731Z,11.38
2019-05-22T07:12:03.050Z,11.80
2019-05-22T07:14:33.334Z,13.28
2019-05-22T07:17:02.074Z,12.70
2019-05-22T07:19:32.725Z,13.18
2019-05-22T07:22:01.329Z,14.80
2019-05-22T07:24:30.371Z,14.43
2019-05-22T07:27:02.211Z,13.22
2019-05-22T07:29:31.517Z,14.00
2019-05-22T07:32:02.300Z,11.08
2019-05-22T07:34:31.394Z,9.73
2019-05-22T07:37:00.130Z,9.88
2019-05-22T07:39:29.166Z,8.38
2019-05-22T07:41:58.248Z,8.30
2019-05-22T07:44:26.955Z,6.62
2019-05-22T07:46:55.617Z,6.40
2019-05-22T07:49:24.692Z,6.75
2019-05-22T07:52:00.621Z,6.35
2019-05-22T07:54:24.429Z,6.28
2019-05-22T07:56:53.195Z,5.47
2019-05-22T07:59:21.854Z,5.75
2019-05-22T08:01:51.518Z,5.62
2019-05-22T08:04:20.803Z,9.63
2019-05-22T08:06:49.486Z,7.85
2019-05-22T08:09:19.941Z,5.55
2019-05-22T08:11:48.529Z,5.87
2019-05-22T08:14:19.211Z,4.95
2019-05-22T08:16:48.261Z,6.22
2019-05-22T08:19:17.119Z,5.85
2019-05-22T08:21:46.352Z,5.95
2019-05-22T08:24:15.305Z,5.80
2019-05-22T08:26:53.967Z,5.72
2019-05-22T08:29:15.683Z,5.67
2019-05-22T08:31:46.269Z,8.50
2019-05-22T08:34:15.206Z,5.03
2019-05-22T08:36:46.874Z,5.15
2019-05-22T08:39:15.947Z,4.97
2019-05-22T08:41:44.893Z,4.83
2019-05-22T08:44:17.305Z,5.20
2019-05-22T08:46:45.975Z,6.47
2019-05-22T08:49:15.362Z,5.20
2019-05-22T08:51:44.794Z,5.33
2019-05-22T08:54:14.219Z,6.15
2019-05-22T08:56:46.451Z,6.50
2019-05-22T08:59:19.498Z,6.97
2019-05-22T09:01:46.983Z,6.00
2019-05-22T09:04:16.499Z,6.03
2019-05-22T09:06:45.421Z,6.17
2019-05-22T09:09:14.516Z,5.97
2019-05-22T09:11:43.172Z,8.98
2019-05-22T09:14:12.190Z,5.87
2019-05-22T09:16:41.379Z,5.78
2019-05-22T09:19:10.472Z,4.08
2019-05-22T09:21:40.750Z,3.80
2019-05-22T09:24:13.281Z,5.00
2019-05-22T09:26:42.327Z,4.40
2019-05-22T09:29:11.292Z,4.85
2019-05-22T09:31:40.729Z,4.03
2019-05-22T09:34:09.821Z,4.22
2019-05-22T09:36:38.761Z,3.90
2019-05-22T09:39:09.467Z,4.47
2019-05-22T09:41:38.507Z,3.35
2019-05-22T09:44:07.375Z,4.62
2019-05-22T09:46:36.621Z,4.28
2019-05-22T09:49:06.079Z,4.50
2019-05-22T09:51:34.827Z,4.58
2019-05-22T09:54:03.659Z,4.40
2019-05-22T09:56:32.609Z,3.50
2019-05-22T09:59:01.737Z,4.28
2019-05-22T10:01:30.935Z,4.08
2019-05-22T10:04:00.167Z,4.50
2019-05-22T10:06:29.277Z,4.00
2019-05-22T10:08:58.312Z,4.03
2019-05-22T10:11:27.217Z,4.65
2019-05-22T10:13:56.190Z,5.45
2019-05-22T10:16:24.949Z,4.30
2019-05-22T10:18:53.827Z,3.80
2019-05-22T10:21:22.926Z,4.50
2019-05-22T10:23:51.581Z,4.28
2019-05-22T10:26:20.698Z,4.50
2019-05-22T10:28:49.664Z,4.60
2019-05-22T10:31:21.576Z,4.10
2019-05-22T10:33:51.882Z,4.50
2019-05-22T10:36:19.274Z,4.50
2019-05-22T10:38:48.139Z,3.83
2019-05-22T10:41:18.283Z,3.90
2019-05-22T10:43:47.478Z,4.05
2019-05-22T10:46:16.275Z,4.53
2019-05-22T10:48:45.612Z,4.55
2019-05-22T10:51:14.344Z,4.17
2019-05-22T10:53:42.996Z,4.30
2019-05-22T10:56:11.756Z,4.37
2019-05-22T10:58:40.452Z,4.90
2019-05-22T11:01:10.110Z,4.55
2019-05-22T11:03:39.270Z,4.53
2019-05-22T11:06:08.539Z,4.58
2019-05-22T11:08:37.701Z,4.35
2019-05-22T11:11:06.406Z,4.37
2019-05-22T11:13:36.734Z,4.53
2019-05-22T11:16:05.759Z,4.42
2019-05-22T11:18:35.382Z,4.08
2019-05-22T11:21:04.866Z,3.95
2019-05-22T11:23:50.053Z,5.10
2019-05-22T11:26:04.809Z,4.30
2019-05-22T11:28:33.876Z,4.22
2019-05-22T11:31:04.462Z,4.30
2019-05-22T11:33:34.500Z,4.35
2019-05-22T11:36:04.737Z,4.67
2019-05-22T11:38:33.555Z,4.90
2019-05-22T11:41:02.554Z,3.42
2019-05-22T11:43:31.869Z,4.22
2019-05-22T11:46:00.429Z,4.00
2019-05-22T11:48:29.378Z,4.28
2019-05-22T11:51:01.066Z,4.85
2019-05-22T11:53:29.445Z,4.05
2019-05-22T11:55:58.635Z,4.15
2019-05-22T11:58:27.427Z,4.25
2019-05-22T12:00:56.099Z,4.17
2019-05-22T12:03:25.237Z,4.33
2019-05-22T12:05:55.444Z,4.50
2019-05-22T12:08:26.517Z,4.83
2019-05-22T12:10:55.792Z,3.90
2019-05-22T12:13:24.961Z,4.30
2019-05-22T12:15:56.491Z,4.17
2019-05-22T12:18:27.113Z,4.17
2019-05-22T12:20:56.022Z,4.28
2019-05-22T12:23:25.991Z,4.53
2019-05-22T12:25:54.937Z,4.12
2019-05-22T12:28:24.552Z,3.72
2019-05-22T12:30:53.325Z,4.03
2019-05-22T12:33:23.078Z,4.85
2019-05-22T12:35:53.010Z,11.43
2019-05-22T12:38:26.559Z,12.58
2019-05-22T12:40:54.076Z,13.60
2019-05-22T12:43:23.148Z,13.93
2019-05-22T12:45:52.486Z,12.90
2019-05-22T12:48:21.254Z,12.85
2019-05-22T12:50:50.843Z,12.60
2019-05-22T12:53:20.623Z,12.63
2019-05-22T12:55:49.607Z,13.93
2019-05-22T12:58:19.349Z,12.37
2019-05-22T13:00:48.459Z,11.90
2019-05-22T13:03:18.387Z,13.13
2019-05-22T13:05:47.709Z,14.15
2019-05-22T13:08:17.533Z,12.37
2019-05-22T13:10:47.063Z,17.07
2019-05-22T13:13:16.142Z,15.85
2019-05-22T13:15:45.206Z,15.23
2019-05-22T13:18:17.153Z,15.18
2019-05-22T13:20:47.831Z,15.57
2019-05-22T13:23:17.510Z,13.48
2019-05-22T13:25:47.138Z,13.22
2019-05-22T13:28:18.253Z,14.73
2019-05-22T13:30:51.235Z,12.13
2019-05-22T13:33:22.323Z,12.18
2019-05-22T13:35:52.134Z,13.50
2019-05-22T13:38:21.218Z,13.90
2019-05-22T13:40:50.176Z,10.13
2019-05-22T13:43:19.565Z,9.78
2019-05-22T13:45:48.253Z,9.78
2019-05-22T13:48:16.931Z,16.42
2019-05-22T13:50:45.956Z,17.40
2019-05-22T13:53:17.422Z,18.62
2019-05-22T13:55:46.741Z,17.12
2019-05-22T13:58:16.375Z,16.20
2019-05-22T14:00:45.250Z,17.55
2019-05-22T14:03:15.735Z,22.25
2019-05-22T14:05:47.453Z,24.95
2019-05-22T14:08:16.570Z,23.27
2019-05-22T14:10:49.629Z,21.48
2019-05-22T14:13:16.805Z,18.27
2019-05-22T14:15:52.557Z,15.08
2019-05-22T14:18:16.397Z,13.80
2019-05-22T14:20:45.252Z,17.25
2019-05-22T14:23:14.528Z,17.37
2019-05-22T14:25:44.169Z,17.70
2019-05-22T14:28:14.078Z,15.85
2019-05-22T14:30:43.747Z,17.15
2019-05-22T14:33:12.831Z,18.75
2019-05-22T14:35:48.703Z,18.05
2019-05-22T14:38:13.413Z,16.35
2019-05-22T14:40:42.741Z,15.40
2019-05-22T14:43:11.786Z,11.97
2019-05-22T14:45:41.818Z,13.22
2019-05-22T14:48:11.554Z,11.80
2019-05-22T14:50:40.306Z,16.55
2019-05-22T14:53:10.558Z,15.38
2019-05-22T14:55:40.586Z,16.02
2019-05-22T14:58:09.957Z,12.70
2019-05-22T15:00:40.714Z,12.85
2019-05-22T15:03:09.966Z,17.05
2019-05-22T15:05:38.838Z,13.20
2019-05-22T15:08:07.753Z,16.67
2019-05-22T15:10:37.270Z,14.78
2019-05-22T15:13:06.313Z,15.85
2019-05-22T15:15:40.105Z,15.95
2019-05-22T15:18:06.234Z,15.58
2019-05-22T15:20:42.385Z,16.27
2019-05-22T15:23:11.392Z,17.00
2019-05-22T15:25:40.302Z,17.02
2019-05-22T15:28:09.948Z,16.15
2019-05-22T15:30:39.916Z,17.12
2019-05-22T15:33:09.678Z,17.05
2019-05-22T15:35:38.397Z,18.02
2019-05-22T15:38:09.232Z,13.68
2019-05-22T15:40:38.241Z,13.35
2019-05-22T15:43:09.587Z,5.83
2019-05-22T15:45:40.205Z,4.50
2019-05-22T15:48:12.233Z,4.17
2019-05-22T15:50:44.883Z,4.13
2019-05-22T15:53:15.501Z,4.70
2019-05-22T15:55:47.858Z,4.50
2019-05-22T15:58:18.035Z,4.03
2019-05-22T16:00:48.149Z,4.70
2019-05-22T16:03:22.676Z,4.20
2019-05-22T16:05:53.707Z,3.83
2019-05-22T16:08:23.070Z,4.67
2019-05-22T16:10:52.254Z,4.72
2019-05-22T16:13:22.931Z,5.05
2019-05-22T16:15:55.787Z,4.17
2019-05-22T16:21:00.554Z,4.28
2019-05-22T16:23:31.631Z,4.15
2019-05-22T16:26:01.528Z,4.60
2019-05-22T16:28:35.718Z,5.22
2019-05-22T16:31:03.527Z,5.03
2019-05-22T16:33:34.569Z,5.33
2019-05-22T16:36:04.703Z,5.15
2019-05-22T16:38:36.553Z,4.95
2019-05-22T16:41:06.419Z,4.12
2019-05-22T16:43:49.033Z,3.90
2019-05-22T16:46:10.255Z,4.75
2019-05-22T16:48:41.314Z,4.47
2019-05-22T16:51:11.952Z,4.28
2019-05-22T16:53:41.035Z,4.15
2019-05-22T16:56:09.829Z,4.67
2019-05-22T16:58:38.756Z,4.62
2019-05-22T17:01:09.170Z,4.40
2019-05-22T17:03:38.867Z,4.67
2019-05-22T17:06:07.646Z,5.10
2019-05-22T17:08:37.439Z,4.92
2019-05-22T17:11:07.818Z,4.75
2019-05-22T17:13:37.127Z,5.08
2019-05-22T17:16:07.316Z,4.60
2019-05-22T17:18:47.277Z,5.00
2019-05-22T17:21:08.009Z,4.87
2019-05-22T17:23:36.672Z,4.53
2019-05-22T17:26:05.653Z,5.20
2019-05-22T17:28:34.439Z,5.17
2019-05-22T17:31:04.261Z,5.75
2019-05-22T17:33:34.019Z,5.20
2019-05-22T17:36:05.774Z,5.10
2019-05-22T17:38:35.135Z,4.92
2019-05-22T17:41:04.749Z,5.30
2019-05-22T17:43:34.166Z,4.83
2019-05-22T17:46:04.416Z,5.15
2019-05-22T17:48:34.174Z,5.37
2019-05-22T17:51:04.518Z,5.20
2019-05-22T17:53:33.912Z,5.03
2019-05-22T17:56:02.497Z,4.80
2019-05-22T17:58:31.174Z,5.03
2019-05-22T18:01:01.092Z,5.05
2019-05-22T18:03:30.270Z,4.70
2019-05-22T18:05:59.814Z,5.60
2019-05-22T18:08:29.546Z,4.87
2019-05-22T18:11:00.150Z,5.30
2019-05-22T18:13:29.868Z,5.85
2019-05-22T18:15:58.721Z,6.40
2019-05-22T18:18:27.363Z,6.05
2019-05-22T18:20:56.678Z,5.65
2019-05-22T18:23:25.425Z,7.20
2019-05-22T18:25:54.146Z,6.58
2019-05-22T18:28:23.462Z,6.03
2019-05-22T18:30:52.653Z,7.28
2019-05-22T18:33:21.296Z,6.95
2019-05-22T18:35:49.936Z,7.25
2019-05-22T18:38:18.601Z,7.47
2019-05-22T18:40:47.322Z,7.75
2019-05-22T18:43:18.836Z,7.90
2019-05-22T18:45:46.660Z,6.90
2019-05-22T18:48:15.677Z,7.12
2019-05-22T18:50:44.651Z,6.87
2019-05-22T18:53:13.500Z,8.30
2019-05-22T18:55:42.231Z,7.40
2019-05-22T18:58:11.268Z,7.55
2019-05-22T19:00:40.034Z,8.25
2019-05-22T19:03:09.264Z,7.62
2019-05-22T19:05:38.151Z,10.93
2019-05-22T19:08:07.083Z,14.63
2019-05-22T19:10:35.926Z,14.25
2019-05-22T19:13:04.933Z,16.23
2019-05-22T19:15:33.811Z,15.83
2019-05-22T19:18:02.679Z,15.60
2019-05-22T19:20:31.600Z,14.47
2019-05-22T19:23:01.698Z,14.50
2019-05-22T19:25:30.874Z,14.30
2019-05-22T19:27:59.514Z,15.75
2019-05-22T19:30:28.345Z,16.80
2019-05-22T19:32:56.971Z,15.75
2019-05-22T19:35:25.604Z,17.23
2019-05-22T19:37:54.933Z,17.12
2019-05-22T19:40:23.745Z,17.35
2019-05-22T19:42:52.678Z,16.45
2019-05-22T19:45:22.179Z,17.05
2019-05-22T19:47:52.890Z,15.08
2019-05-22T19:50:23.853Z,14.83
2019-05-22T19:52:55.176Z,15.63
2019-05-22T19:55:26.072Z,15.13
2019-05-22T19:57:55.145Z,16.05
2019-05-22T20:00:24.760Z,15.98
2019-05-22T20:02:54.899Z,15.95
2019-05-22T20:05:25.481Z,16.12
2019-05-22T20:07:54.693Z,16.57
2019-05-22T20:10:23.746Z,16.73
2019-05-22T20:12:52.493Z,17.95
2019-05-22T20:15:22.557Z,17.77
2019-05-22T20:17:51.606Z,17.40
2019-05-22T20:20:22.303Z,17.62
2019-05-22T20:22:53.209Z,17.37
2019-05-22T20:25:23.079Z,17.77
2019-05-22T20:27:52.200Z,16.73
2019-05-22T20:30:22.901Z,16.97
2019-05-22T20:32:51.742Z,15.72
2019-05-22T20:35:20.988Z,13.88
2019-05-22T20:37:50.226Z,12.93
2019-05-22T20:40:20.386Z,12.68
2019-05-22T20:42:49.419Z,12.85
2019-05-22T20:45:21.070Z,12.15
2019-05-22T20:47:54.404Z,12.10
2019-05-22T20:50:24.595Z,13.50
2019-05-22T20:52:53.536Z,11.97
2019-05-22T20:55:22.848Z,15.03
2019-05-22T20:57:53.149Z,13.32
2019-05-22T21:00:22.065Z,15.25
2019-05-22T21:02:53.732Z,15.65
2019-05-22T21:05:25.360Z,15.15
2019-05-22T21:07:57.231Z,15.65
2019-05-22T21:10:27.235Z,16.73
2019-05-22T21:12:57.817Z,16.73
2019-05-22T21:15:28.705Z,19.32
2019-05-22T21:17:57.806Z,18.35
2019-05-22T21:20:28.131Z,19.32
2019-05-22T21:22:57.050Z,19.77
2019-05-22T21:25:26.058Z,19.57
2019-05-22T21:27:54.812Z,17.65
2019-05-22T21:30:25.201Z,18.52
2019-05-22T21:32:54.087Z,18.67
2019-05-22T21:35:23.827Z,19.50
2019-05-22T21:37:52.852Z,19.62
2019-05-22T21:40:23.036Z,19.62
2019-05-22T21:42:53.980Z,20.45
2019-05-22T21:45:24.193Z,21.25
2019-05-22T21:47:53.293Z,20.60
2019-05-22T21:50:22.713Z,20.08
2019-05-22T21:52:52.211Z,21.97
2019-05-22T21:55:22.269Z,23.62
2019-05-22T21:57:51.049Z,25.02
2019-05-22T22:00:36.043Z,24.37
2019-05-22T22:03:06.938Z,24.20
2019-05-22T22:05:35.915Z,24.77
2019-05-22T22:08:05.320Z,23.75
2019-05-22T22:10:34.021Z,23.47
2019-05-22T22:13:07.563Z,26.30
2019-05-22T22:15:35.775Z,26.87
2019-05-22T22:18:06.212Z,27.05
2019-05-22T22:20:35.182Z,26.85
2019-05-22T22:23:04.999Z,27.15
2019-05-22T22:25:34.048Z,28.07
2019-05-22T22:28:04.546Z,29.52
2019-05-22T22:30:41.038Z,29.48
2019-05-22T22:33:10.087Z,30.35
2019-05-22T22:35:39.599Z,27.98
2019-05-22T22:38:09.232Z,30.43
2019-05-22T22:40:39.216Z,28.85
2019-05-22T22:43:10.528Z,28.62
2019-05-22T22:45:43.578Z,28.87
2019-05-22T22:48:15.885Z,27.60
2019-05-22T22:50:45.557Z,27.45
2019-05-22T22:53:18.514Z,28.20
2019-05-22T22:58:18.999Z,30.68
2019-05-22T23:00:49.376Z,30.12
2019-05-22T23:03:24.554Z,29.98
2019-05-22T23:05:53.735Z,30.20
2019-05-22T23:08:29.725Z,31.68
2019-05-22T23:10:58.427Z,33.10
2019-05-22T23:13:27.982Z,33.35
2019-05-22T23:15:58.063Z,32.83
2019-05-22T23:18:43.055Z,32.63
2019-05-22T23:21:12.227Z,30.70
2019-05-22T23:23:41.351Z,35.10
2019-05-22T23:26:11.598Z,32.98
2019-05-22T23:28:42.256Z,31.75
2019-05-22T23:31:12.070Z,32.03
2019-05-22T23:33:41.088Z,32.28
2019-05-22T23:36:12.155Z,32.48
2019-05-22T23:38:41.597Z,33.02
2019-05-22T23:41:11.992Z,32.48
2019-05-22T23:43:42.566Z,33.98
2019-05-22T23:46:13.478Z,33.92
2019-05-22T23:48:43.907Z,33.85
2019-05-22T23:51:12.802Z,33.18
2019-05-22T23:53:42.237Z,34.27
2019-05-22T23:56:11.837Z,31.90
2019-05-22T23:58:52.098Z,32.80
